Time;durP1;ratioP1;P1;durP2;ratioP2;P2;SDS_P1;SDS_P2;PMS_P1;PMS_P2;Temp;Humidity;BMP_temperature;BMP_pressure;BME280_temperature;BME280_humidity;BME280_pressure;Samples;Min_cycle;Max_cycle;Signal;HPM_P1;HPM_P2
2021/09/05 00:02:24;;;;;;;28.77;17.00;;;;;;;;;;5033366;28;20397;-45
2021/09/05 00:04:50;;;;;;;26.57;16.60;;;;;;;;;;5033264;28;20888;-47
2021/09/05 00:07:15;;;;;;;29.03;17.03;;;;;;;;;;5033023;28;20973;-45
2021/09/05 00:09:42;;;;;;;28.80;18.37;;;;;;;;;;5033211;28;20429;-45
2021/09/05 00:12:08;;;;;;;31.83;17.47;;;;;;;;;;5033153;28;20409;-45
2021/09/05 00:14:34;;;;;;;30.10;18.37;;;;;;;;;;5033160;28;20613;-45
2021/09/05 00:17:00;;;;;;;30.93;18.37;;;;;;;;;;5032855;28;20878;-45
2021/09/05 00:19:26;;;;;;;28.63;17.80;;;;;;;;;;5032897;28;20415;-44
2021/09/05 00:21:52;;;;;;;27.93;16.87;;;;;;;;;;5032755;28;20439;-45
2021/09/05 00:24:18;;;;;;;31.27;18.10;;;;;;;;;;5032948;28;20429;-45
2021/09/05 00:26:47;;;;;;;31.10;18.90;;;;;;;;;;5032768;28;20396;-45
2021/09/05 00:29:13;;;;;;;44.10;18.93;;;;;;;;;;5032786;28;20413;-45
2021/09/05 00:31:39;;;;;;;26.53;17.73;;;;;;;;;;5032759;28;20407;-45
2021/09/05 00:34:05;;;;;;;34.17;19.13;;;;;;;;;;5032735;28;20401;-46
2021/09/05 00:36:31;;;;;;;36.53;19.63;;;;;;;;;;5032457;28;20403;-45
2021/09/05 00:38:57;;;;;;;32.90;20.03;;;;;;;;;;5032569;28;20467;-45
2021/09/05 00:41:23;;;;;;;37.57;20.13;;;;;;;;;;5032495;28;20920;-45
2021/09/05 00:43:53;;;;;;;31.50;19.20;;;;;;;;;;5032561;28;20443;-45
2021/09/05 00:46:19;;;;;;;29.90;18.03;;;;;;;;;;5032358;28;20408;-45
2021/09/05 00:48:45;;;;;;;27.17;17.30;;;;;;;;;;5032404;28;20402;-45
2021/09/05 00:51:11;;;;;;;34.13;20.37;;;;;;;;;;5032603;28;20439;-45
2021/09/05 00:53:37;;;;;;;31.43;17.20;;;;;;;;;;5032417;28;20438;-45
2021/09/05 00:56:03;;;;;;;33.03;19.63;;;;;;;;;;5032055;28;20431;-45
2021/09/05 00:58:30;;;;;;;27.10;17.97;;;;;;;;;;5031610;28;20448;-45
2021/09/05 01:00:56;;;;;;;27.60;18.13;;;;;;;;;;5032199;28;20427;-45
2021/09/05 01:03:22;;;;;;;32.43;18.20;;;;;;;;;;5032145;28;20416;-45
2021/09/05 01:05:48;;;;;;;38.33;19.30;;;;;;;;;;5032021;28;20403;-45
2021/09/05 01:08:14;;;;;;;34.97;18.80;;;;;;;;;;5032362;28;20405;-45
2021/09/05 01:10:40;;;;;;;27.50;17.83;;;;;;;;;;5032039;28;20455;-45
2021/09/05 01:13:07;;;;;;;31.10;17.57;;;;;;;;;;5032033;28;20898;-45
2021/09/05 01:15:33;;;;;;;27.97;18.50;;;;;;;;;;5031833;28;20480;-45
2021/09/05 01:17:59;;;;;;;28.93;17.13;;;;;;;;;;5031869;28;20541;-44
2021/09/05 01:20:25;;;;;;;27.03;17.20;;;;;;;;;;5031979;28;20499;-46
2021/09/05 01:22:51;;;;;;;32.00;18.87;;;;;;;;;;5031973;28;20911;-45
2021/09/05 01:25:17;;;;;;;30.50;18.03;;;;;;;;;;5032198;28;20969;-45
2021/09/05 01:27:43;;;;;;;30.13;17.80;;;;;;;;;;5031748;28;20444;-46
2021/09/05 01:30:10;;;;;;;34.27;18.30;;;;;;;;;;5031741;28;20432;-45
2021/09/05 01:32:36;;;;;;;28.40;17.43;;;;;;;;;;5031677;28;20401;-47
2021/09/05 01:35:03;;;;;;;31.40;18.40;;;;;;;;;;5031817;28;20424;-45
2021/09/05 01:37:29;;;;;;;28.67;17.40;;;;;;;;;;5031859;28;20451;-45
2021/09/05 01:39:55;;;;;;;27.90;18.30;;;;;;;;;;5031703;28;20423;-45
2021/09/05 01:42:21;;;;;;;27.60;17.03;;;;;;;;;;5031754;28;20407;-45
2021/09/05 01:44:47;;;;;;;32.30;17.10;;;;;;;;;;5031780;28;20400;-47
2021/09/05 01:47:13;;;;;;;29.37;17.13;;;;;;;;;;5031546;28;20405;-44
2021/09/05 01:49:39;;;;;;;33.50;17.00;;;;;;;;;;5031687;28;20424;-45
2021/09/05 01:52:06;;;;;;;28.70;17.30;;;;;;;;;;5031592;28;20949;-45
2021/09/05 01:54:31;;;;;;;31.17;18.00;;;;;;;;;;5031703;28;20929;-45
2021/09/05 01:56:57;;;;;;;33.20;17.20;;;;;;;;;;5031382;28;20404;-45
2021/09/05 01:59:23;;;;;;;32.87;19.50;;;;;;;;;;5031467;28;20426;-45
2021/09/05 02:01:49;;;;;;;28.70;17.93;;;;;;;;;;5031504;28;20768;-46
2021/09/05 02:04:15;;;;;;;29.27;18.77;;;;;;;;;;5031528;28;20475;-45
2021/09/05 02:06:41;;;;;;;30.27;17.93;;;;;;;;;;5031304;28;20400;-47
2021/09/05 02:09:07;;;;;;;27.83;18.20;;;;;;;;;;5033765;28;20413;-48
2021/09/05 02:11:33;;;;;;;29.70;17.63;;;;;;;;;;5035452;28;20587;-44
2021/09/05 02:13:59;;;;;;;27.27;17.53;;;;;;;;;;5035407;28;20461;-45
2021/09/05 02:16:25;;;;;;;32.70;20.87;;;;;;;;;;5035165;28;20399;-45
2021/09/05 02:18:51;;;;;;;32.17;18.10;;;;;;;;;;5035175;28;20490;-46
2021/09/05 02:21:17;;;;;;;36.17;18.27;;;;;;;;;;5035180;28;20427;-46
2021/09/05 02:23:43;;;;;;;31.67;18.50;;;;;;;;;;5035360;28;20434;-46
2021/09/05 02:26:09;;;;;;;35.40;18.60;;;;;;;;;;5034961;28;20411;-45
2021/09/05 02:28:35;;;;;;;28.57;17.90;;;;;;;;;;5035060;28;20555;-47
2021/09/05 02:31:01;;;;;;;32.10;18.53;;;;;;;;;;5034906;28;20988;-45
2021/09/05 02:33:27;;;;;;;24.77;16.40;;;;;;;;;;5035008;28;20429;-46
2021/09/05 02:35:53;;;;;;;31.70;18.83;;;;;;;;;;5034773;28;20864;-47
2021/09/05 02:38:19;;;;;;;36.90;19.50;;;;;;;;;;5034926;28;20466;-45
2021/09/05 02:40:46;;;;;;;26.57;17.40;;;;;;;;;;5034814;28;20420;-45
2021/09/05 02:43:12;;;;;;;32.63;18.57;;;;;;;;;;5034684;28;20402;-45
2021/09/05 02:45:38;;;;;;;30.47;18.47;;;;;;;;;;5034621;28;20497;-45
2021/09/05 02:48:04;;;;;;;36.70;18.80;;;;;;;;;;5034788;28;20402;-44
2021/09/05 02:50:31;;;;;;;28.17;17.80;;;;;;;;;;5034575;28;20427;-46
2021/09/05 02:52:58;;;;;;;31.70;18.37;;;;;;;;;;5034615;28;20421;-47
2021/09/05 02:55:24;;;;;;;34.73;18.30;;;;;;;;;;5034690;28;20415;-45
2021/09/05 02:57:50;;;;;;;27.97;17.60;;;;;;;;;;5034249;28;20446;-45
2021/09/05 03:00:16;;;;;;;29.10;17.87;;;;;;;;;;5034426;28;20509;-44
2021/09/05 03:02:42;;;;;;;31.23;18.00;;;;;;;;;;5034447;28;20436;-46
2021/09/05 03:05:08;;;;;;;31.40;18.33;;;;;;;;;;5034429;28;20912;-45
2021/09/05 03:07:34;;;;;;;34.93;18.83;;;;;;;;;;5034218;28;20892;-45
2021/09/05 03:10:00;;;;;;;32.77;19.27;;;;;;;;;;5034318;28;20430;-45
2021/09/05 03:12:26;;;;;;;37.10;19.53;;;;;;;;;;5034132;28;20408;-45
2021/09/05 03:14:52;;;;;;;33.90;20.73;;;;;;;;;;5034340;28;20403;-45
2021/09/05 03:17:18;;;;;;;30.67;19.27;;;;;;;;;;5033924;28;20500;-45
2021/09/05 03:19:44;;;;;;;30.83;17.23;;;;;;;;;;5033087;28;20498;-45
2021/09/05 03:22:10;;;;;;;34.93;19.17;;;;;;;;;;5033881;28;20548;-48
2021/09/05 03:24:36;;;;;;;36.00;20.93;;;;;;;;;;5034113;28;20400;-45
2021/09/05 03:27:02;;;;;;;35.40;19.03;;;;;;;;;;5033851;28;20451;-45
2021/09/05 03:29:28;;;;;;;32.07;19.20;;;;;;;;;;5033908;28;20427;-45
2021/09/05 03:31:54;;;;;;;33.23;20.17;;;;;;;;;;5033934;28;20407;-45
2021/09/05 03:34:20;;;;;;;38.20;20.10;;;;;;;;;;5034589;28;20494;-45
2021/09/05 03:36:46;;;;;;;35.00;20.40;;;;;;;;;;5033577;28;20414;-45
2021/09/05 03:39:12;;;;;;;37.30;19.93;;;;;;;;;;5033807;28;20394;-44
2021/09/05 03:41:38;;;;;;;32.63;20.20;;;;;;;;;;5033600;28;20412;-45
2021/09/05 03:44:04;;;;;;;39.47;20.30;;;;;;;;;;5034011;28;20406;-45
2021/09/05 03:46:30;;;;;;;43.63;20.60;;;;;;;;;;5033582;28;20810;-46
2021/09/05 03:48:56;;;;;;;34.00;18.93;;;;;;;;;;5033529;28;20844;-47
2021/09/05 03:51:22;;;;;;;32.70;18.27;;;;;;;;;;5033491;28;20427;-44
2021/09/05 03:53:48;;;;;;;35.60;20.17;;;;;;;;;;5033584;28;20399;-45
2021/09/05 03:56:14;;;;;;;33.00;19.67;;;;;;;;;;5033250;28;20408;-45
2021/09/05 03:58:40;;;;;;;39.70;21.47;;;;;;;;;;5033363;28;20456;-45
2021/09/05 04:01:06;;;;;;;39.70;21.57;;;;;;;;;;5033443;28;20431;-45
2021/09/05 04:03:32;;;;;;;35.57;21.10;;;;;;;;;;5033290;28;20406;-45
2021/09/05 04:05:58;;;;;;;40.60;20.93;;;;;;;;;;5033184;28;20413;-44
2021/09/05 04:08:42;;;;;;;40.43;20.90;;;;;;;;;;5033319;28;20407;-45
2021/09/05 04:11:08;;;;;;;35.40;20.00;;;;;;;;;;5033170;28;20480;-45
2021/09/05 04:13:35;;;;;;;38.93;20.40;;;;;;;;;;5033173;28;20436;-45
2021/09/05 04:16:01;;;;;;;36.13;20.47;;;;;;;;;;5033254;28;21051;-44
2021/09/05 04:18:27;;;;;;;31.93;18.97;;;;;;;;;;5033071;28;20571;-45
2021/09/05 04:20:53;;;;;;;33.73;20.47;;;;;;;;;;5032888;28;20434;-45
2021/09/05 04:23:19;;;;;;;40.20;21.23;;;;;;;;;;5032830;28;20886;-45
2021/09/05 04:25:44;;;;;;;35.57;20.40;;;;;;;;;;5032761;28;20395;-46
2021/09/05 04:28:10;;;;;;;62.63;42.20;;;;;;;;;;5032903;28;20402;-45
2021/09/05 04:30:36;;;;;;;39.23;21.40;;;;;;;;;;5032782;28;20798;-44
2021/09/05 04:33:02;;;;;;;35.60;19.33;;;;;;;;;;5032563;28;20492;-44
2021/09/05 04:35:28;;;;;;;34.73;21.13;;;;;;;;;;5032764;28;20404;-44
2021/09/05 04:37:54;;;;;;;36.87;22.50;;;;;;;;;;5032349;28;20454;-44
2021/09/05 04:40:20;;;;;;;41.60;20.60;;;;;;;;;;5032583;28;20414;-44
2021/09/05 04:42:46;;;;;;;30.00;19.47;;;;;;;;;;5032773;28;20875;-45
2021/09/05 04:45:12;;;;;;;34.30;19.60;;;;;;;;;;5032586;28;20400;-45
2021/09/05 04:47:38;;;;;;;36.80;19.90;;;;;;;;;;5032286;28;20460;-45
2021/09/05 04:50:04;;;;;;;39.23;21.63;;;;;;;;;;5032462;28;20795;-46
2021/09/05 04:52:30;;;;;;;37.10;20.53;;;;;;;;;;5032260;28;20823;-46
2021/09/05 04:54:56;;;;;;;36.93;21.53;;;;;;;;;;5032465;28;20545;-47
2021/09/05 04:57:22;;;;;;;35.57;20.70;;;;;;;;;;5032114;28;20478;-44
2021/09/05 04:59:48;;;;;;;39.30;21.30;;;;;;;;;;5032202;28;20419;-44
2021/09/05 05:02:14;;;;;;;37.23;20.97;;;;;;;;;;5032210;28;20405;-44
2021/09/05 05:04:40;;;;;;;42.10;19.30;;;;;;;;;;5032275;28;20747;-44
2021/09/05 05:07:06;;;;;;;38.23;22.13;;;;;;;;;;5031933;28;20449;-44
2021/09/05 05:09:32;;;;;;;37.10;21.50;;;;;;;;;;5032261;28;20422;-45
2021/09/05 05:11:58;;;;;;;33.53;20.57;;;;;;;;;;5032063;28;20456;-45
2021/09/05 05:14:24;;;;;;;32.43;18.57;;;;;;;;;;5032098;28;20406;-45
2021/09/05 05:16:50;;;;;;;33.40;19.07;;;;;;;;;;5032100;28;20502;-46
2021/09/05 05:19:16;;;;;;;30.40;18.40;;;;;;;;;;5032375;28;20446;-47
2021/09/05 05:21:42;;;;;;;34.07;19.93;;;;;;;;;;5031828;28;20644;-45
2021/09/05 05:24:08;;;;;;;31.00;18.40;;;;;;;;;;5032059;28;20882;-45
2021/09/05 05:26:34;;;;;;;40.67;20.47;;;;;;;;;;5031760;28;20437;-44
2021/09/05 05:29:00;;;;;;;35.60;19.80;;;;;;;;;;5031922;28;20441;-44
2021/09/05 05:31:26;;;;;;;31.63;19.77;;;;;;;;;;5031801;28;20425;-45
2021/09/05 05:33:52;;;;;;;40.63;19.17;;;;;;;;;;5031870;28;20775;-45
2021/09/05 05:36:18;;;;;;;37.33;19.17;;;;;;;;;;5031707;28;20409;-45
2021/09/05 05:38:44;;;;;;;36.20;18.00;;;;;;;;;;5031696;28;20481;-45
2021/09/05 05:41:10;;;;;;;36.47;19.77;;;;;;;;;;5031699;28;20419;-45
2021/09/05 05:43:37;;;;;;;32.80;18.27;;;;;;;;;;5031200;28;20399;-44
2021/09/05 05:46:03;;;;;;;30.13;18.20;;;;;;;;;;5031569;28;20406;-44
2021/09/05 05:48:29;;;;;;;34.90;20.13;;;;;;;;;;5031721;28;20493;-45
2021/09/05 05:50:57;;;;;;;33.17;18.10;;;;;;;;;;5031423;28;20518;-45
2021/09/05 05:53:23;;;;;;;38.90;20.30;;;;;;;;;;5031738;28;20409;-45
2021/09/05 05:55:49;;;;;;;39.43;20.67;;;;;;;;;;5031384;28;20410;-46
2021/09/05 05:58:15;;;;;;;36.07;21.50;;;;;;;;;;5031563;28;20549;-47
2021/09/05 06:00:42;;;;;;;38.93;20.70;;;;;;;;;;5031435;28;20505;-48
2021/09/05 06:03:08;;;;;;;33.60;19.93;;;;;;;;;;5031547;28;20478;-45
2021/09/05 06:05:34;;;;;;;31.00;18.90;;;;;;;;;;5031505;28;20495;-45
2021/09/05 06:08:03;;;;;;;38.17;20.17;;;;;;;;;;5031337;28;20764;-45
2021/09/05 06:10:30;;;;;;;34.67;19.27;;;;;;;;;;5031387;28;20422;-47
2021/09/05 06:12:56;;;;;;;33.27;20.10;;;;;;;;;;5031403;28;20411;-45
2021/09/05 06:15:22;;;;;;;41.50;19.80;;;;;;;;;;5031473;28;20406;-45
2021/09/05 06:17:48;;;;;;;38.87;19.67;;;;;;;;;;5031118;28;20454;-46
2021/09/05 06:20:14;;;;;;;34.67;19.70;;;;;;;;;;5031305;28;20428;-46
2021/09/05 06:22:40;;;;;;;34.13;19.37;;;;;;;;;;5031228;28;20430;-47
2021/09/05 06:25:06;;;;;;;31.73;19.37;;;;;;;;;;5031409;28;20459;-45
2021/09/05 06:27:32;;;;;;;32.43;18.33;;;;;;;;;;5031193;28;20421;-47
2021/09/05 06:30:00;;;;;;;33.77;20.40;;;;;;;;;;5031184;28;20430;-45
2021/09/05 06:32:27;;;;;;;27.60;17.00;;;;;;;;;;5031216;28;20418;-45
2021/09/05 06:34:53;;;;;;;38.03;18.47;;;;;;;;;;5031439;28;20548;-45
2021/09/05 06:37:19;;;;;;;32.63;18.63;;;;;;;;;;5031024;28;20449;-45
2021/09/05 06:39:45;;;;;;;32.97;19.80;;;;;;;;;;5031144;28;20512;-45
2021/09/05 06:42:10;;;;;;;37.10;21.40;;;;;;;;;;5031169;28;20408;-45
2021/09/05 06:44:37;;;;;;;41.70;21.23;;;;;;;;;;5031216;28;20431;-45
2021/09/05 06:47:03;;;;;;;34.17;19.77;;;;;;;;;;5030927;28;20405;-45
2021/09/05 06:49:29;;;;;;;31.37;20.10;;;;;;;;;;5031055;28;20872;-45
2021/09/05 06:51:55;;;;;;;40.67;20.07;;;;;;;;;;5031075;28;20412;-45
2021/09/05 06:54:21;;;;;;;33.80;20.07;;;;;;;;;;5031176;28;20386;-45
2021/09/05 06:56:46;;;;;;;33.97;20.33;;;;;;;;;;5033792;28;20405;-47
2021/09/05 06:59:12;;;;;;;32.17;19.30;;;;;;;;;;5034381;28;20479;-47
2021/09/05 07:01:38;;;;;;;32.10;19.70;;;;;;;;;;5034442;28;20434;-45
2021/09/05 07:04:04;;;;;;;31.00;19.07;;;;;;;;;;5034585;28;20398;-45
2021/09/05 07:06:30;;;;;;;30.30;20.03;;;;;;;;;;5034343;28;20537;-45
2021/09/05 07:08:56;;;;;;;36.63;19.40;;;;;;;;;;5034363;28;20403;-46
2021/09/05 07:11:22;;;;;;;24.70;16.90;;;;;;;;;;5033292;28;21018;-46
2021/09/05 07:13:52;;;;;;;24.00;16.30;;;;;;;;;;5034554;28;20916;-47
2021/09/05 07:16:18;;;;;;;24.77;16.50;;;;;;;;;;5032655;28;20443;-49
2021/09/05 07:18:44;;;;;;;26.63;17.00;;;;;;;;;;5034065;28;20485;-48
2021/09/05 07:21:10;;;;;;;21.27;15.20;;;;;;;;;;5034041;28;20436;-49
2021/09/05 07:23:36;;;;;;;25.57;16.20;;;;;;;;;;5033995;28;20498;-48
2021/09/05 07:26:02;;;;;;;21.67;15.87;;;;;;;;;;5033629;28;20398;-46
2021/09/05 07:28:32;;;;;;;21.17;15.40;;;;;;;;;;5034029;28;20434;-48
2021/09/05 07:30:58;;;;;;;23.90;17.33;;;;;;;;;;5033517;28;20445;-49
2021/09/05 07:33:24;;;;;;;21.90;16.30;;;;;;;;;;5034064;28;20398;-46
2021/09/05 07:35:50;;;;;;;19.33;15.67;;;;;;;;;;5033909;28;20468;-45
2021/09/05 07:38:16;;;;;;;17.63;14.07;;;;;;;;;;5033600;28;20481;-46
2021/09/05 07:40:42;;;;;;;20.83;15.20;;;;;;;;;;5033807;28;20529;-46
2021/09/05 07:43:08;;;;;;;19.90;15.20;;;;;;;;;;5033748;28;20440;-47
2021/09/05 07:45:34;;;;;;;17.13;15.10;;;;;;;;;;5033767;28;20413;-47
2021/09/05 07:48:00;;;;;;;17.90;14.50;;;;;;;;;;5033556;28;20493;-47
2021/09/05 07:50:26;;;;;;;15.53;13.83;;;;;;;;;;5033591;28;20438;-47
2021/09/05 07:52:52;;;;;;;20.90;14.70;;;;;;;;;;5033648;28;20780;-46
2021/09/05 07:55:18;;;;;;;20.87;15.37;;;;;;;;;;5033612;28;20933;-47
2021/09/05 07:57:44;;;;;;;20.63;15.23;;;;;;;;;;5033223;28;20454;-47
2021/09/05 08:00:11;;;;;;;16.10;14.00;;;;;;;;;;5033320;28;20449;-50
2021/09/05 08:02:37;;;;;;;20.73;15.23;;;;;;;;;;5033384;28;20407;-49
2021/09/05 08:05:03;;;;;;;16.03;13.70;;;;;;;;;;5033380;28;20406;-46
2021/09/05 08:07:28;;;;;;;16.93;14.50;;;;;;;;;;5032760;28;20406;-46
2021/09/05 08:09:55;;;;;;;17.83;14.67;;;;;;;;;;5033183;28;20426;-47
2021/09/05 08:12:22;;;;;;;17.73;14.03;;;;;;;;;;5033124;28;20494;-47
2021/09/05 08:14:47;;;;;;;14.20;12.70;;;;;;;;;;5033125;28;20509;-47
2021/09/05 08:17:13;;;;;;;18.43;14.43;;;;;;;;;;5032911;28;20914;-50
2021/09/05 08:19:40;;;;;;;19.13;14.77;;;;;;;;;;5033024;28;20414;-46
2021/09/05 08:22:06;;;;;;;15.27;13.33;;;;;;;;;;5032896;28;20517;-46
2021/09/05 08:24:31;;;;;;;16.10;14.40;;;;;;;;;;5033086;28;20909;-46
2021/09/05 08:26:57;;;;;;;15.27;13.10;;;;;;;;;;5032658;28;20410;-46
2021/09/05 08:29:23;;;;;;;13.90;11.90;;;;;;;;;;5032781;28;20429;-47
2021/09/05 08:31:49;;;;;;;15.13;13.43;;;;;;;;;;5032793;28;20390;-46
2021/09/05 08:34:15;;;;;;;14.43;12.93;;;;;;;;;;5032855;28;20820;-46
2021/09/05 08:36:41;;;;;;;16.70;14.10;;;;;;;;;;5032823;28;20966;-46
2021/09/05 08:39:07;;;;;;;16.83;12.97;;;;;;;;;;5032556;28;20457;-47
2021/09/05 08:41:34;;;;;;;15.20;12.00;;;;;;;;;;5032429;28;20426;-47
2021/09/05 08:44:00;;;;;;;19.23;12.80;;;;;;;;;;5032613;28;20422;-47
2021/09/05 08:46:26;;;;;;;14.73;12.10;;;;;;;;;;5032435;28;20399;-46
2021/09/05 08:48:54;;;;;;;13.50;12.10;;;;;;;;;;5032519;28;20402;-48
2021/09/05 08:51:20;;;;;;;13.60;12.20;;;;;;;;;;5032373;28;21016;-48
2021/09/05 08:53:46;;;;;;;13.50;11.63;;;;;;;;;;5032517;28;20434;-49
2021/09/05 08:56:12;;;;;;;14.70;12.77;;;;;;;;;;5032113;28;20433;-46
2021/09/05 08:58:38;;;;;;;21.07;14.40;;;;;;;;;;5032306;28;20874;-49
2021/09/05 09:01:43;;;;;;;19.80;14.20;;;;;;;;;;5032208;28;20422;-49
2021/09/05 09:04:13;;;;;;;15.00;13.40;;;;;;;;;;4951950;29;20528;-48
2021/09/05 09:06:39;;;;;;;15.23;12.53;;;;;;;;;;4951696;29;20474;-50
2021/09/05 09:09:06;;;;;;;16.70;14.00;;;;;;;;;;4992275;28;20410;-47
2021/09/05 09:11:46;;;;;;;19.60;13.10;;;;;;;;;;5032043;28;20506;-46
2021/09/05 09:14:12;;;;;;;17.27;13.13;;;;;;;;;;5032208;28;20434;-46
2021/09/05 09:16:38;;;;;;;14.87;12.93;;;;;;;;;;5031994;28;20430;-46
2021/09/05 09:19:05;;;;;;;15.83;13.00;;;;;;;;;;5031206;28;20461;-48
2021/09/05 09:21:37;;;;;;;17.30;13.77;;;;;;;;;;5031962;28;20456;-47
2021/09/05 09:24:08;;;;;;;15.50;13.50;;;;;;;;;;5032225;28;20797;-46
2021/09/05 09:26:34;;;;;;;17.53;13.50;;;;;;;;;;5031759;28;20422;-47
2021/09/05 09:29:00;;;;;;;15.97;13.50;;;;;;;;;;5031899;28;20433;-49
2021/09/05 09:31:27;;;;;;;15.80;13.50;;;;;;;;;;5031855;28;20855;-50
2021/09/05 09:33:53;;;;;;;15.00;12.70;;;;;;;;;;5032503;28;20402;-46
2021/09/05 09:36:26;;;;;;;18.47;13.70;;;;;;;;;;5031923;28;20444;-46
2021/09/05 09:38:59;;;;;;;14.73;12.33;;;;;;;;;;5031767;28;20195;-46
2021/09/05 09:41:29;;;;;;;16.03;12.53;;;;;;;;;;5031687;28;20461;-47
2021/09/05 09:43:56;;;;;;;17.03;12.70;;;;;;;;;;5031754;28;20397;-48
2021/09/05 09:46:27;;;;;;;14.50;12.13;;;;;;;;;;5031454;28;20406;-46
2021/09/05 09:48:54;;;;;;;16.13;12.33;;;;;;;;;;5031780;28;20398;-46
2021/09/05 09:51:20;;;;;;;14.67;12.23;;;;;;;;;;5031593;28;20464;-47
2021/09/05 09:53:47;;;;;;;17.80;10.60;;;;;;;;;;5031654;28;20485;-47
2021/09/05 09:56:16;;;;;;;13.77;10.80;;;;;;;;;;5031486;28;20482;-47
2021/09/05 09:58:42;;;;;;;13.57;11.40;;;;;;;;;;5031483;28;20449;-49
2021/09/05 10:01:09;;;;;;;14.40;12.20;;;;;;;;;;5031444;28;20501;-50
2021/09/05 10:03:35;;;;;;;13.97;11.93;;;;;;;;;;5031734;28;20406;-48
2021/09/05 10:06:02;;;;;;;12.20;10.90;;;;;;;;;;5031518;28;20449;-47
2021/09/05 10:08:30;;;;;;;15.80;11.33;;;;;;;;;;5031356;28;20958;-46
2021/09/05 10:10:58;;;;;;;16.57;11.90;;;;;;;;;;5031448;28;20495;-46
2021/09/05 10:13:29;;;;;;;18.57;11.20;;;;;;;;;;5031494;28;20784;-46
2021/09/05 10:15:56;;;;;;;14.03;12.10;;;;;;;;;;5031567;28;20400;-48
2021/09/05 10:18:22;;;;;;;12.07;10.70;;;;;;;;;;5031203;28;20465;-48
2021/09/05 10:20:48;;;;;;;13.30;10.07;;;;;;;;;;5031473;28;20609;-47
2021/09/05 10:23:14;;;;;;;15.07;11.10;;;;;;;;;;5031202;28;20894;-47
2021/09/05 10:25:40;;;;;;;13.10;10.37;;;;;;;;;;5031319;28;20401;-47
2021/09/05 10:28:09;;;;;;;10.70;9.57;;;;;;;;;;5031157;28;20417;-48
2021/09/05 10:30:36;;;;;;;11.77;10.50;;;;;;;;;;5034085;28;20816;-46
2021/09/05 10:33:02;;;;;;;13.83;10.20;;;;;;;;;;5035011;28;20410;-49
2021/09/05 10:35:30;;;;;;;12.13;10.93;;;;;;;;;;5017323;28;20428;-47
2021/09/05 10:38:11;;;;;;;11.87;9.97;;;;;;;;;;5034647;28;20849;-47
2021/09/05 10:40:40;;;;;;;12.13;10.60;;;;;;;;;;5034913;28;20417;-47
2021/09/05 10:43:06;;;;;;;13.30;10.50;;;;;;;;;;5035026;28;20425;-46
2021/09/05 10:45:33;;;;;;;12.00;10.70;;;;;;;;;;5034867;28;20438;-46
2021/09/05 10:47:59;;;;;;;13.80;10.90;;;;;;;;;;5034634;28;20878;-47
2021/09/05 10:50:36;;;;;;;12.80;10.80;;;;;;;;;;5034711;28;20433;-46
2021/09/05 10:53:22;;;;;;;11.20;10.10;;;;;;;;;;5034962;28;20829;-47
2021/09/05 10:56:07;;;;;;;13.13;10.53;;;;;;;;;;5034729;28;20453;-49
2021/09/05 10:59:02;;;;;;;10.83;9.70;;;;;;;;;;5034414;28;20446;-47
2021/09/05 11:01:35;;;;;;;10.47;9.40;;;;;;;;;;5015516;28;20442;-47
2021/09/05 11:04:14;;;;;;;11.53;9.77;;;;;;;;;;5034539;28;20402;-47
2021/09/05 11:06:42;;;;;;;28.77;24.17;;;;;;;;;;5034346;28;20406;-47
2021/09/05 11:09:35;;;;;;;10.40;9.33;;;;;;;;;;5034370;28;20398;-49
2021/09/05 11:12:11;;;;;;;13.53;10.57;;;;;;;;;;5030785;28;20428;-46
2021/09/05 11:14:42;;;;;;;15.30;11.80;;;;;;;;;;5034271;28;20772;-48
2021/09/05 11:17:08;;;;;;;13.10;9.87;;;;;;;;;;5034076;28;20972;-46
2021/09/05 11:19:42;;;;;;;11.20;10.20;;;;;;;;;;5034021;28;20450;-47
2021/09/05 11:22:10;;;;;;;15.17;10.83;;;;;;;;;;5033957;28;20422;-47
2021/09/05 11:24:36;;;;;;;12.73;10.90;;;;;;;;;;5034185;28;20398;-49
2021/09/05 11:27:06;;;;;;;14.17;10.40;;;;;;;;;;5034075;28;20409;-48
2021/09/05 11:29:32;;;;;;;14.27;9.87;;;;;;;;;;5033984;28;20929;-48
2021/09/05 11:32:05;;;;;;;12.87;10.10;;;;;;;;;;5033927;28;20770;-48
2021/09/05 11:34:31;;;;;;;11.67;9.70;;;;;;;;;;5033968;28;20894;-47
2021/09/05 11:36:57;;;;;;;10.77;9.67;;;;;;;;;;5033654;28;20917;-46
2021/09/05 11:39:23;;;;;;;12.40;10.20;;;;;;;;;;5033796;28;20971;-47
2021/09/05 11:41:53;;;;;;;11.30;9.90;;;;;;;;;;5031961;28;20493;-47
2021/09/05 11:44:28;;;;;;;11.60;9.90;;;;;;;;;;5034152;28;20819;-50
2021/09/05 11:47:07;;;;;;;11.63;10.43;;;;;;;;;;5033548;28;20401;-46
2021/09/05 11:49:37;;;;;;;13.70;9.87;;;;;;;;;;5033553;28;20509;-47
2021/09/05 11:52:03;;;;;;;12.30;11.00;;;;;;;;;;5033529;28;20409;-46
2021/09/05 11:54:29;;;;;;;12.97;10.07;;;;;;;;;;5033568;28;20398;-47
2021/09/05 11:56:55;;;;;;;10.90;9.70;;;;;;;;;;5033372;28;20425;-47
2021/09/05 11:59:21;;;;;;;12.13;10.33;;;;;;;;;;5033318;28;20826;-46
2021/09/05 12:01:48;;;;;;;12.10;10.20;;;;;;;;;;5033176;28;20929;-46
2021/09/05 12:04:15;;;;;;;12.53;9.80;;;;;;;;;;5034329;28;20418;-46
2021/09/05 12:06:41;;;;;;;9.87;8.87;;;;;;;;;;5032917;28;20414;-47
2021/09/05 12:09:07;;;;;;;12.23;8.80;;;;;;;;;;5033179;28;20464;-46
2021/09/05 12:11:53;;;;;;;11.10;10.00;;;;;;;;;;5033008;28;20461;-46
2021/09/05 12:14:32;;;;;;;10.53;9.50;;;;;;;;;;5033001;28;20478;-49
2021/09/05 12:16:59;;;;;;;11.73;8.63;;;;;;;;;;5032883;28;20406;-46
2021/09/05 12:19:25;;;;;;;11.90;9.67;;;;;;;;;;5032866;28;20458;-46
2021/09/05 12:21:58;;;;;;;12.53;10.53;;;;;;;;;;5032861;28;20401;-46
2021/09/05 12:24:24;;;;;;;11.90;9.77;;;;;;;;;;5032908;28;20398;-46
2021/09/05 12:26:51;;;;;;;11.17;9.50;;;;;;;;;;5032603;28;20441;-47
2021/09/05 12:29:29;;;;;;;11.97;9.97;;;;;;;;;;5032911;28;20413;-47
2021/09/05 12:32:00;;;;;;;10.53;9.50;;;;;;;;;;5032692;28;20434;-46
2021/09/05 12:34:55;;;;;;;11.63;10.43;;;;;;;;;;5032788;28;20407;-46
2021/09/05 12:37:21;;;;;;;11.80;10.60;;;;;;;;;;5015380;28;20572;-47
2021/09/05 12:39:48;;;;;;;12.47;10.60;;;;;;;;;;5032590;28;20458;-47
2021/09/05 12:42:16;;;;;;;13.60;10.73;;;;;;;;;;5032772;28;20413;-46
2021/09/05 12:44:46;;;;;;;13.57;12.17;;;;;;;;;;5032641;28;20399;-46
2021/09/05 12:47:19;;;;;;;11.23;9.87;;;;;;;;;;5032281;28;20402;-46
2021/09/05 12:49:45;;;;;;;15.40;9.40;;;;;;;;;;5032220;28;20414;-46
2021/09/05 12:52:22;;;;;;;13.67;10.30;;;;;;;;;;5032353;28;20395;-46
2021/09/05 12:54:48;;;;;;;10.33;9.33;;;;;;;;;;5032317;28;20398;-45
2021/09/05 12:57:14;;;;;;;12.27;11.10;;;;;;;;;;5032007;28;20414;-45
2021/09/05 12:59:43;;;;;;;10.70;9.57;;;;;;;;;;5032281;28;20422;-47
2021/09/05 13:02:09;;;;;;;12.70;10.63;;;;;;;;;;5032047;28;20168;-46
2021/09/05 13:04:34;;;;;;;11.40;10.20;;;;;;;;;;5032339;28;20403;-46
2021/09/05 13:07:00;;;;;;;16.33;10.67;;;;;;;;;;5033236;28;20413;-47
2021/09/05 13:09:26;;;;;;;11.00;9.77;;;;;;;;;;5031962;28;20182;-47
2021/09/05 13:11:52;;;;;;;11.80;10.57;;;;;;;;;;5032075;28;20890;-46
2021/09/05 13:14:19;;;;;;;12.47;10.97;;;;;;;;;;5032045;28;20402;-46
2021/09/05 13:16:45;;;;;;;12.83;11.37;;;;;;;;;;5031760;28;20402;-46
2021/09/05 13:19:11;;;;;;;11.00;9.20;;;;;;;;;;5031700;28;20795;-47
2021/09/05 13:21:37;;;;;;;16.50;11.00;;;;;;;;;;5031930;28;20456;-46
2021/09/05 13:24:03;;;;;;;12.07;10.27;;;;;;;;;;5032113;28;20402;-46
2021/09/05 13:26:29;;;;;;;10.50;9.50;;;;;;;;;;5031863;28;20399;-46
2021/09/05 13:28:57;;;;;;;11.27;10.07;;;;;;;;;;5031625;28;20451;-46
2021/09/05 13:31:25;;;;;;;11.13;10.03;;;;;;;;;;5031581;28;20504;-47
2021/09/05 13:33:51;;;;;;;11.30;9.40;;;;;;;;;;5031783;28;20402;-46
2021/09/05 13:36:17;;;;;;;11.13;9.27;;;;;;;;;;5031768;28;20544;-46
2021/09/05 13:38:43;;;;;;;11.70;9.80;;;;;;;;;;5031563;28;20456;-46
2021/09/05 13:41:09;;;;;;;13.63;10.70;;;;;;;;;;5031534;28;20842;-46
2021/09/05 13:43:35;;;;;;;11.93;9.90;;;;;;;;;;5031682;28;20411;-46
2021/09/05 13:46:01;;;;;;;11.77;9.83;;;;;;;;;;5031651;28;20402;-46
2021/09/05 13:48:27;;;;;;;11.10;8.90;;;;;;;;;;5031425;28;20421;-46
2021/09/05 13:50:53;;;;;;;11.40;10.30;;;;;;;;;;5031526;28;20430;-47
2021/09/05 13:53:19;;;;;;;10.40;9.40;;;;;;;;;;5031621;28;20502;-47
2021/09/05 13:55:45;;;;;;;10.27;9.27;;;;;;;;;;5031625;28;20398;-48
2021/09/05 13:58:11;;;;;;;10.40;9.40;;;;;;;;;;5031118;28;20493;-48
2021/09/05 14:00:37;;;;;;;10.40;9.23;;;;;;;;;;5031397;28;20420;-46
2021/09/05 14:03:05;;;;;;;10.20;9.20;;;;;;;;;;5031453;28;20402;-46
2021/09/05 14:05:31;;;;;;;11.87;10.03;;;;;;;;;;5034523;28;20394;-46
2021/09/05 14:07:57;;;;;;;11.73;10.53;;;;;;;;;;5035353;28;20455;-46
2021/09/05 14:10:25;;;;;;;13.43;10.00;;;;;;;;;;5035408;28;20860;-45
2021/09/05 14:12:51;;;;;;;13.10;10.40;;;;;;;;;;5035228;28;20402;-46
2021/09/05 14:15:18;;;;;;;11.90;9.60;;;;;;;;;;5035375;28;20771;-48
2021/09/05 14:17:44;;;;;;;13.23;9.83;;;;;;;;;;5034261;28;20446;-46
2021/09/05 14:20:10;;;;;;;11.97;10.33;;;;;;;;;;5035240;28;20787;-46